sensor_id;sensor_type;location;lat;lon;timestamp;P1;durP1;ratioP1;P2;durP2;ratioP2
4961;SDS011;2496;52.468;13.342;2023-11-18T00:00:15;7.50;;;5.50;;
4961;SDS011;2496;52.468;13.342;2023-11-18T00:02:42;11.30;;;5.97;;
4961;SDS011;2496;52.468;13.342;2023-11-18T00:05:11;7.77;;;5.60;;
4961;SDS011;2496;52.468;13.342;2023-11-18T00:07:38;9.10;;;6.27;;
4961;SDS011;2496;52.468;13.342;2023-11-18T00:10:06;10.67;;;5.50;;
4961;SDS011;2496;52.468;13.342;2023-11-18T00:12:33;8.67;;;6.00;;
4961;SDS011;2496;52.468;13.342;2023-11-18T00:15:00;8.70;;;6.27;;
4961;SDS011;2496;52.468;13.342;2023-11-18T00:17:29;8.87;;;6.50;;
4961;SDS011;2496;52.468;13.342;2023-11-18T00:19:57;11.83;;;7.17;;
4961;SDS011;2496;52.468;13.342;2023-11-18T00:22:26;7.50;;;6.50;;
4961;SDS011;2496;52.468;13.342;2023-11-18T00:24:53;10.77;;;6.67;;
4961;SDS011;2496;52.468;13.342;2023-11-18T00:27:22;9.60;;;6.40;;
4961;SDS011;2496;52.468;13.342;2023-11-18T00:29:50;8.90;;;6.53;;
4961;SDS011;2496;52.468;13.342;2023-11-18T00:32:18;10.60;;;7.27;;
4961;SDS011;2496;52.468;13.342;2023-11-18T00:34:45;8.50;;;6.30;;
4961;SDS011;2496;52.468;13.342;2023-11-18T00:37:13;13.13;;;6.10;;
4961;SDS011;2496;52.468;13.342;2023-11-18T00:39:41;8.47;;;6.50;;
4961;SDS011;2496;52.468;13.342;2023-11-18T00:42:08;8.63;;;6.23;;
4961;SDS011;2496;52.468;13.342;2023-11-18T00:44:36;8.10;;;6.37;;
4961;SDS011;2496;52.468;13.342;2023-11-18T00:47:03;7.90;;;6.10;;
4961;SDS011;2496;52.468;13.342;2023-11-18T00:49:30;15.20;;;6.93;;
4961;SDS011;2496;52.468;13.342;2023-11-18T00:51:59;8.70;;;6.37;;
4961;SDS011;2496;52.468;13.342;2023-11-18T00:54:26;10.27;;;6.70;;
4961;SDS011;2496;52.468;13.342;2023-11-18T00:56:54;9.50;;;6.40;;
4961;SDS011;2496;52.468;13.342;2023-11-18T00:59:21;10.40;;;7.00;;
4961;SDS011;2496;52.468;13.342;2023-11-18T01:01:48;9.17;;;6.50;;
4961;SDS011;2496;52.468;13.342;2023-11-18T01:04:15;8.67;;;5.83;;
4961;SDS011;2496;52.468;13.342;2023-11-18T01:06:42;9.60;;;6.50;;
4961;SDS011;2496;52.468;13.342;2023-11-18T01:09:09;7.87;;;6.13;;
4961;SDS011;2496;52.468;13.342;2023-11-18T01:11:37;7.10;;;5.73;;
4961;SDS011;2496;52.468;13.342;2023-11-18T01:14:05;6.03;;;5.00;;
4961;SDS011;2496;52.468;13.342;2023-11-18T01:16:32;9.80;;;5.60;;
4961;SDS011;2496;52.468;13.342;2023-11-18T01:19:00;6.70;;;5.40;;
4961;SDS011;2496;52.468;13.342;2023-11-18T01:21:27;6.90;;;5.30;;
4961;SDS011;2496;52.468;13.342;2023-11-18T01:23:54;6.90;;;5.67;;
4961;SDS011;2496;52.468;13.342;2023-11-18T01:26:21;8.13;;;5.90;;
4961;SDS011;2496;52.468;13.342;2023-11-18T01:28:48;5.97;;;5.33;;
4961;SDS011;2496;52.468;13.342;2023-11-18T01:31:16;6.67;;;5.23;;
4961;SDS011;2496;52.468;13.342;2023-11-18T01:33:44;8.80;;;5.20;;
4961;SDS011;2496;52.468;13.342;2023-11-18T01:36:12;11.80;;;6.10;;
4961;SDS011;2496;52.468;13.342;2023-11-18T01:38:39;9.00;;;6.03;;
4961;SDS011;2496;52.468;13.342;2023-11-18T01:41:06;8.67;;;6.63;;
4961;SDS011;2496;52.468;13.342;2023-11-18T01:43:34;11.20;;;7.20;;
4961;SDS011;2496;52.468;13.342;2023-11-18T01:46:02;7.83;;;6.20;;
4961;SDS011;2496;52.468;13.342;2023-11-18T01:48:33;7.30;;;5.70;;
4961;SDS011;2496;52.468;13.342;2023-11-18T01:51:01;7.30;;;5.47;;
4961;SDS011;2496;52.468;13.342;2023-11-18T01:53:32;9.40;;;5.90;;
4961;SDS011;2496;52.468;13.342;2023-11-18T01:56:02;10.03;;;6.70;;
4961;SDS011;2496;52.468;13.342;2023-11-18T01:58:31;8.33;;;6.20;;
4961;SDS011;2496;52.468;13.342;2023-11-18T02:01:00;8.77;;;6.53;;
4961;SDS011;2496;52.468;13.342;2023-11-18T02:03:28;7.73;;;5.90;;
4961;SDS011;2496;52.468;13.342;2023-11-18T02:05:57;12.77;;;7.03;;
4961;SDS011;2496;52.468;13.342;2023-11-18T02:08:24;10.47;;;6.90;;
4961;SDS011;2496;52.468;13.342;2023-11-18T02:10:54;11.70;;;7.27;;
4961;SDS011;2496;52.468;13.342;2023-11-18T02:13:26;11.33;;;6.50;;
4961;SDS011;2496;52.468;13.342;2023-11-18T02:16:01;8.27;;;6.20;;
4961;SDS011;2496;52.468;13.342;2023-11-18T02:18:33;11.47;;;7.27;;
4961;SDS011;2496;52.468;13.342;2023-11-18T02:21:03;8.23;;;6.77;;
4961;SDS011;2496;52.468;13.342;2023-11-18T02:23:33;11.90;;;6.13;;
4961;SDS011;2496;52.468;13.342;2023-11-18T02:26:04;10.57;;;6.70;;
4961;SDS011;2496;52.468;13.342;2023-11-18T02:28:31;7.70;;;6.53;;
4961;SDS011;2496;52.468;13.342;2023-11-18T02:31:00;9.17;;;7.40;;
4961;SDS011;2496;52.468;13.342;2023-11-18T02:33:33;10.10;;;6.50;;
4961;SDS011;2496;52.468;13.342;2023-11-18T02:36:07;8.03;;;6.17;;
4961;SDS011;2496;52.468;13.342;2023-11-18T02:38:42;9.20;;;6.47;;
4961;SDS011;2496;52.468;13.342;2023-11-18T02:41:16;8.50;;;6.60;;
4961;SDS011;2496;52.468;13.342;2023-11-18T02:43:44;8.37;;;6.37;;
4961;SDS011;2496;52.468;13.342;2023-11-18T02:46:13;7.90;;;6.03;;
4961;SDS011;2496;52.468;13.342;2023-11-18T02:48:40;10.03;;;6.70;;
4961;SDS011;2496;52.468;13.342;2023-11-18T02:51:07;10.43;;;6.77;;
4961;SDS011;2496;52.468;13.342;2023-11-18T02:53:37;12.20;;;7.50;;
4961;SDS011;2496;52.468;13.342;2023-11-18T02:56:06;8.67;;;7.17;;
4961;SDS011;2496;52.468;13.342;2023-11-18T02:58:35;9.23;;;6.93;;
4961;SDS011;2496;52.468;13.342;2023-11-18T03:01:03;8.10;;;5.50;;
4961;SDS011;2496;52.468;13.342;2023-11-18T03:03:31;9.27;;;6.40;;
4961;SDS011;2496;52.468;13.342;2023-11-18T03:05:58;11.17;;;7.30;;
4961;SDS011;2496;52.468;13.342;2023-11-18T03:08:25;9.50;;;6.80;;
4961;SDS011;2496;52.468;13.342;2023-11-18T03:10:54;12.83;;;7.67;;
4961;SDS011;2496;52.468;13.342;2023-11-18T03:13:23;8.37;;;6.17;;
4961;SDS011;2496;52.468;13.342;2023-11-18T03:15:51;8.87;;;6.37;;
4961;SDS011;2496;52.468;13.342;2023-11-18T03:18:17;9.87;;;7.57;;
4961;SDS011;2496;52.468;13.342;2023-11-18T03:20:46;9.80;;;6.53;;
4961;SDS011;2496;52.468;13.342;2023-11-18T03:23:14;9.77;;;6.60;;
4961;SDS011;2496;52.468;13.342;2023-11-18T03:25:41;10.10;;;6.67;;
4961;SDS011;2496;52.468;13.342;2023-11-18T03:28:08;11.53;;;7.03;;
4961;SDS011;2496;52.468;13.342;2023-11-18T03:30:35;10.70;;;6.80;;
4961;SDS011;2496;52.468;13.342;2023-11-18T03:33:05;11.57;;;6.43;;
4961;SDS011;2496;52.468;13.342;2023-11-18T03:35:36;10.50;;;7.10;;
4961;SDS011;2496;52.468;13.342;2023-11-18T03:38:03;9.30;;;6.33;;
4961;SDS011;2496;52.468;13.342;2023-11-18T03:40:30;9.73;;;6.63;;
4961;SDS011;2496;52.468;13.342;2023-11-18T03:43:00;9.50;;;6.83;;
4961;SDS011;2496;52.468;13.342;2023-11-18T03:45:28;11.63;;;7.53;;
4961;SDS011;2496;52.468;13.342;2023-11-18T03:47:55;6.87;;;5.37;;
4961;SDS011;2496;52.468;13.342;2023-11-18T03:50:23;10.17;;;7.50;;
4961;SDS011;2496;52.468;13.342;2023-11-18T03:52:51;8.40;;;6.20;;
4961;SDS011;2496;52.468;13.342;2023-11-18T03:55:18;8.57;;;6.53;;
4961;SDS011;2496;52.468;13.342;2023-11-18T03:57:45;13.47;;;5.90;;
4961;SDS011;2496;52.468;13.342;2023-11-18T04:00:14;9.03;;;5.80;;
4961;SDS011;2496;52.468;13.342;2023-11-18T04:02:42;10.27;;;6.10;;
4961;SDS011;2496;52.468;13.342;2023-11-18T04:05:11;7.37;;;5.60;;
4961;SDS011;2496;52.468;13.342;2023-11-18T04:07:39;11.60;;;7.10;;
4961;SDS011;2496;52.468;13.342;2023-11-18T04:10:07;11.23;;;7.20;;
4961;SDS011;2496;52.468;13.342;2023-11-18T04:12:35;9.80;;;6.50;;
4961;SDS011;2496;52.468;13.342;2023-11-18T04:15:02;12.00;;;6.77;;
4961;SDS011;2496;52.468;13.342;2023-11-18T04:17:31;12.37;;;7.63;;
4961;SDS011;2496;52.468;13.342;2023-11-18T04:19:58;9.33;;;6.23;;
4961;SDS011;2496;52.468;13.342;2023-11-18T04:22:29;12.53;;;7.83;;
4961;SDS011;2496;52.468;13.342;2023-11-18T04:24:57;15.10;;;7.37;;
4961;SDS011;2496;52.468;13.342;2023-11-18T04:27:24;12.53;;;7.30;;
4961;SDS011;2496;52.468;13.342;2023-11-18T04:29:51;11.03;;;7.60;;
4961;SDS011;2496;52.468;13.342;2023-11-18T04:32:18;14.07;;;7.90;;
4961;SDS011;2496;52.468;13.342;2023-11-18T04:34:45;12.23;;;8.40;;
4961;SDS011;2496;52.468;13.342;2023-11-18T04:37:14;12.03;;;7.60;;
4961;SDS011;2496;52.468;13.342;2023-11-18T04:39:41;11.60;;;8.30;;
4961;SDS011;2496;52.468;13.342;2023-11-18T04:42:09;15.03;;;8.20;;
4961;SDS011;2496;52.468;13.342;2023-11-18T04:44:36;12.43;;;7.90;;
4961;SDS011;2496;52.468;13.342;2023-11-18T04:47:04;17.23;;;8.30;;
4961;SDS011;2496;52.468;13.342;2023-11-18T04:49:31;13.67;;;8.70;;
4961;SDS011;2496;52.468;13.342;2023-11-18T04:51:58;12.40;;;7.63;;
4961;SDS011;2496;52.468;13.342;2023-11-18T04:54:25;12.40;;;8.70;;
4961;SDS011;2496;52.468;13.342;2023-11-18T04:56:53;14.37;;;8.77;;
4961;SDS011;2496;52.468;13.342;2023-11-18T04:59:21;12.83;;;9.00;;
4961;SDS011;2496;52.468;13.342;2023-11-18T05:01:48;12.53;;;8.40;;
4961;SDS011;2496;52.468;13.342;2023-11-18T05:04:18;12.50;;;8.30;;
4961;SDS011;2496;52.468;13.342;2023-11-18T05:06:45;12.30;;;8.90;;
4961;SDS011;2496;52.468;13.342;2023-11-18T05:09:12;14.03;;;7.70;;
4961;SDS011;2496;52.468;13.342;2023-11-18T05:11:41;16.00;;;8.37;;
4961;SDS011;2496;52.468;13.342;2023-11-18T05:14:08;13.20;;;8.20;;
4961;SDS011;2496;52.468;13.342;2023-11-18T05:16:37;15.60;;;8.10;;
4961;SDS011;2496;52.468;13.342;2023-11-18T05:19:05;11.30;;;7.10;;
4961;SDS011;2496;52.468;13.342;2023-11-18T05:21:33;10.37;;;7.23;;
4961;SDS011;2496;52.468;13.342;2023-11-18T05:24:00;14.73;;;8.37;;
4961;SDS011;2496;52.468;13.342;2023-11-18T05:26:28;12.20;;;7.93;;
4961;SDS011;2496;52.468;13.342;2023-11-18T05:28:55;12.57;;;8.53;;
4961;SDS011;2496;52.468;13.342;2023-11-18T05:31:22;13.20;;;7.93;;
4961;SDS011;2496;52.468;13.342;2023-11-18T05:33:50;12.50;;;8.10;;
4961;SDS011;2496;52.468;13.342;2023-11-18T05:36:20;13.87;;;8.23;;
4961;SDS011;2496;52.468;13.342;2023-11-18T05:38:52;11.47;;;7.70;;
4961;SDS011;2496;52.468;13.342;2023-11-18T05:41:20;12.30;;;7.60;;
4961;SDS011;2496;52.468;13.342;2023-11-18T05:43:52;12.03;;;7.63;;
4961;SDS011;2496;52.468;13.342;2023-11-18T05:46:22;10.43;;;7.90;;
4961;SDS011;2496;52.468;13.342;2023-11-18T05:48:52;11.10;;;6.90;;
4961;SDS011;2496;52.468;13.342;2023-11-18T05:51:21;9.07;;;7.03;;
4961;SDS011;2496;52.468;13.342;2023-11-18T05:53:48;9.70;;;7.00;;
4961;SDS011;2496;52.468;13.342;2023-11-18T05:56:17;13.23;;;7.80;;
4961;SDS011;2496;52.468;13.342;2023-11-18T05:58:44;11.13;;;7.60;;
4961;SDS011;2496;52.468;13.342;2023-11-18T06:01:12;12.47;;;7.50;;
4961;SDS011;2496;52.468;13.342;2023-11-18T06:03:40;11.87;;;7.83;;
4961;SDS011;2496;52.468;13.342;2023-11-18T06:06:10;13.83;;;7.60;;
4961;SDS011;2496;52.468;13.342;2023-11-18T06:08:39;12.10;;;7.67;;
4961;SDS011;2496;52.468;13.342;2023-11-18T06:11:07;13.93;;;8.00;;
4961;SDS011;2496;52.468;13.342;2023-11-18T06:13:39;12.07;;;8.30;;
4961;SDS011;2496;52.468;13.342;2023-11-18T06:16:08;14.60;;;7.80;;
4961;SDS011;2496;52.468;13.342;2023-11-18T06:18:39;13.70;;;7.30;;
4961;SDS011;2496;52.468;13.342;2023-11-18T06:21:07;16.40;;;8.20;;
4961;SDS011;2496;52.468;13.342;2023-11-18T06:23:41;11.57;;;7.67;;
4961;SDS011;2496;52.468;13.342;2023-11-18T06:26:08;10.73;;;7.80;;
4961;SDS011;2496;52.468;13.342;2023-11-18T06:28:37;15.57;;;7.67;;
4961;SDS011;2496;52.468;13.342;2023-11-18T06:31:05;10.20;;;7.00;;
4961;SDS011;2496;52.468;13.342;2023-11-18T06:33:36;11.83;;;7.53;;
4961;SDS011;2496;52.468;13.342;2023-11-18T06:36:07;10.60;;;6.90;;
4961;SDS011;2496;52.468;13.342;2023-11-18T06:38:37;10.53;;;7.30;;
4961;SDS011;2496;52.468;13.342;2023-11-18T06:41:05;11.73;;;7.40;;
4961;SDS011;2496;52.468;13.342;2023-11-18T06:43:34;12.63;;;7.20;;
4961;SDS011;2496;52.468;13.342;2023-11-18T06:46:16;10.07;;;6.47;;
4961;SDS011;2496;52.468;13.342;2023-11-18T06:48:46;13.87;;;8.10;;
4961;SDS011;2496;52.468;13.342;2023-11-18T06:51:14;10.47;;;6.73;;
4961;SDS011;2496;52.468;13.342;2023-11-18T06:53:42;9.90;;;7.27;;
4961;SDS011;2496;52.468;13.342;2023-11-18T06:56:10;10.43;;;7.20;;
4961;SDS011;2496;52.468;13.342;2023-11-18T06:58:37;12.00;;;7.60;;
4961;SDS011;2496;52.468;13.342;2023-11-18T07:01:05;10.00;;;6.40;;
4961;SDS011;2496;52.468;13.342;2023-11-18T07:03:32;9.30;;;6.30;;
4961;SDS011;2496;52.468;13.342;2023-11-18T07:05:59;12.67;;;6.70;;
4961;SDS011;2496;52.468;13.342;2023-11-18T07:08:25;9.60;;;6.40;;
4961;SDS011;2496;52.468;13.342;2023-11-18T07:10:54;12.30;;;7.10;;
4961;SDS011;2496;52.468;13.342;2023-11-18T07:13:21;9.90;;;7.43;;
4961;SDS011;2496;52.468;13.342;2023-11-18T07:15:48;14.30;;;7.80;;
4961;SDS011;2496;52.468;13.342;2023-11-18T07:18:15;10.73;;;8.03;;
4961;SDS011;2496;52.468;13.342;2023-11-18T07:20:43;15.53;;;8.53;;
4961;SDS011;2496;52.468;13.342;2023-11-18T07:23:10;14.50;;;7.80;;
4961;SDS011;2496;52.468;13.342;2023-11-18T07:25:37;9.30;;;7.13;;
4961;SDS011;2496;52.468;13.342;2023-11-18T07:28:05;13.77;;;7.03;;
4961;SDS011;2496;52.468;13.342;2023-11-18T07:30:34;13.00;;;7.37;;
4961;SDS011;2496;52.468;13.342;2023-11-18T07:33:03;12.17;;;8.07;;
4961;SDS011;2496;52.468;13.342;2023-11-18T07:35:30;10.90;;;7.47;;
4961;SDS011;2496;52.468;13.342;2023-11-18T07:37:57;10.50;;;7.47;;
4961;SDS011;2496;52.468;13.342;2023-11-18T07:40:25;17.53;;;8.37;;
4961;SDS011;2496;52.468;13.342;2023-11-18T07:42:54;10.70;;;7.47;;
4961;SDS011;2496;52.468;13.342;2023-11-18T07:45:23;12.67;;;7.30;;
4961;SDS011;2496;52.468;13.342;2023-11-18T07:47:50;13.30;;;7.53;;
4961;SDS011;2496;52.468;13.342;2023-11-18T07:50:17;13.30;;;8.10;;
4961;SDS011;2496;52.468;13.342;2023-11-18T07:52:45;12.30;;;6.70;;
4961;SDS011;2496;52.468;13.342;2023-11-18T07:55:12;12.43;;;8.60;;
4961;SDS011;2496;52.468;13.342;2023-11-18T07:57:39;11.13;;;7.20;;
4961;SDS011;2496;52.468;13.342;2023-11-18T08:00:07;15.53;;;10.30;;
4961;SDS011;2496;52.468;13.342;2023-11-18T08:02:36;13.27;;;8.30;;
4961;SDS011;2496;52.468;13.342;2023-11-18T08:05:04;13.90;;;8.47;;
4961;SDS011;2496;52.468;13.342;2023-11-18T08:07:33;13.43;;;9.70;;
4961;SDS011;2496;52.468;13.342;2023-11-18T08:10:00;12.30;;;8.70;;
4961;SDS011;2496;52.468;13.342;2023-11-18T08:12:29;14.67;;;8.00;;
4961;SDS011;2496;52.468;13.342;2023-11-18T08:14:56;16.10;;;9.57;;
4961;SDS011;2496;52.468;13.342;2023-11-18T08:17:24;12.33;;;8.47;;
4961;SDS011;2496;52.468;13.342;2023-11-18T08:19:53;14.37;;;8.50;;
4961;SDS011;2496;52.468;13.342;2023-11-18T08:22:21;14.37;;;8.70;;
4961;SDS011;2496;52.468;13.342;2023-11-18T08:24:48;14.03;;;8.13;;
4961;SDS011;2496;52.468;13.342;2023-11-18T08:27:15;14.30;;;9.63;;
4961;SDS011;2496;52.468;13.342;2023-11-18T08:29:42;17.50;;;9.57;;
4961;SDS011;2496;52.468;13.342;2023-11-18T08:32:11;16.30;;;9.30;;
4961;SDS011;2496;52.468;13.342;2023-11-18T08:34:38;13.83;;;9.60;;
4961;SDS011;2496;52.468;13.342;2023-11-18T08:37:06;15.27;;;9.23;;
4961;SDS011;2496;52.468;13.342;2023-11-18T08:39:34;15.40;;;8.60;;
4961;SDS011;2496;52.468;13.342;2023-11-18T08:42:01;14.77;;;9.30;;
4961;SDS011;2496;52.468;13.342;2023-11-18T08:44:28;14.67;;;9.07;;
4961;SDS011;2496;52.468;13.342;2023-11-18T08:46:57;13.87;;;9.50;;
4961;SDS011;2496;52.468;13.342;2023-11-18T08:49:24;15.77;;;9.77;;
4961;SDS011;2496;52.468;13.342;2023-11-18T08:51:54;14.07;;;8.90;;
4961;SDS011;2496;52.468;13.342;2023-11-18T08:54:24;17.07;;;10.37;;
4961;SDS011;2496;52.468;13.342;2023-11-18T08:57:01;17.20;;;8.90;;
4961;SDS011;2496;52.468;13.342;2023-11-18T08:59:41;16.70;;;10.70;;
4961;SDS011;2496;52.468;13.342;2023-11-18T09:02:09;16.93;;;11.10;;
4961;SDS011;2496;52.468;13.342;2023-11-18T09:04:40;19.87;;;12.97;;
4961;SDS011;2496;52.468;13.342;2023-11-18T09:07:08;16.43;;;9.70;;
4961;SDS011;2496;52.468;13.342;2023-11-18T09:09:37;16.30;;;9.63;;
4961;SDS011;2496;52.468;13.342;2023-11-18T09:12:05;16.20;;;10.40;;
4961;SDS011;2496;52.468;13.342;2023-11-18T09:14:33;13.73;;;9.40;;
4961;SDS011;2496;52.468;13.342;2023-11-18T09:17:00;18.50;;;10.60;;
4961;SDS011;2496;52.468;13.342;2023-11-18T09:19:27;14.07;;;8.73;;
4961;SDS011;2496;52.468;13.342;2023-11-18T09:21:55;13.40;;;9.30;;
4961;SDS011;2496;52.468;13.342;2023-11-18T09:24:21;14.00;;;9.10;;
4961;SDS011;2496;52.468;13.342;2023-11-18T09:26:51;12.60;;;8.23;;
4961;SDS011;2496;52.468;13.342;2023-11-18T09:29:20;12.90;;;8.57;;
4961;SDS011;2496;52.468;13.342;2023-11-18T09:31:49;13.20;;;8.40;;
4961;SDS011;2496;52.468;13.342;2023-11-18T09:34:19;12.30;;;7.60;;
4961;SDS011;2496;52.468;13.342;2023-11-18T09:36:53;12.00;;;7.30;;
4961;SDS011;2496;52.468;13.342;2023-11-18T09:39:20;12.50;;;8.00;;
4961;SDS011;2496;52.468;13.342;2023-11-18T09:42:05;14.13;;;8.07;;
4961;SDS011;2496;52.468;13.342;2023-11-18T09:44:35;12.73;;;8.60;;
4961;SDS011;2496;52.468;13.342;2023-11-18T09:47:03;11.00;;;7.47;;
4961;SDS011;2496;52.468;13.342;2023-11-18T09:49:38;12.27;;;7.87;;
4961;SDS011;2496;52.468;13.342;2023-11-18T09:52:09;13.20;;;7.90;;
4961;SDS011;2496;52.468;13.342;2023-11-18T09:54:45;25.87;;;14.23;;
4961;SDS011;2496;52.468;13.342;2023-11-18T09:57:23;13.70;;;8.60;;
4961;SDS011;2496;52.468;13.342;2023-11-18T09:59:56;13.47;;;8.97;;
4961;SDS011;2496;52.468;13.342;2023-11-18T10:02:44;11.77;;;7.90;;
4961;SDS011;2496;52.468;13.342;2023-11-18T10:05:12;11.53;;;7.77;;
4961;SDS011;2496;52.468;13.342;2023-11-18T10:07:41;13.10;;;8.03;;
4961;SDS011;2496;52.468;13.342;2023-11-18T10:10:10;12.33;;;7.47;;
4961;SDS011;2496;52.468;13.342;2023-11-18T10:12:41;17.40;;;8.30;;
4961;SDS011;2496;52.468;13.342;2023-11-18T10:15:10;13.13;;;8.10;;
4961;SDS011;2496;52.468;13.342;2023-11-18T10:17:39;14.47;;;8.43;;
4961;SDS011;2496;52.468;13.342;2023-11-18T10:20:20;12.80;;;7.20;;
4961;SDS011;2496;52.468;13.342;2023-11-18T10:22:50;11.73;;;7.80;;
4961;SDS011;2496;52.468;13.342;2023-11-18T10:25:34;15.63;;;7.70;;
4961;SDS011;2496;52.468;13.342;2023-11-18T10:28:07;14.07;;;7.97;;
4961;SDS011;2496;52.468;13.342;2023-11-18T10:30:42;11.83;;;7.43;;
4961;SDS011;2496;52.468;13.342;2023-11-18T10:33:12;11.23;;;7.90;;
4961;SDS011;2496;52.468;13.342;2023-11-18T10:35:48;9.83;;;6.60;;
4961;SDS011;2496;52.468;13.342;2023-11-18T10:38:17;11.37;;;7.13;;
4961;SDS011;2496;52.468;13.342;2023-11-18T10:40:44;9.70;;;6.10;;
4961;SDS011;2496;52.468;13.342;2023-11-18T10:43:14;16.90;;;10.27;;
4961;SDS011;2496;52.468;13.342;2023-11-18T10:45:42;15.67;;;10.17;;
4961;SDS011;2496;52.468;13.342;2023-11-18T10:48:12;12.83;;;8.07;;
4961;SDS011;2496;52.468;13.342;2023-11-18T10:50:41;12.73;;;7.60;;
4961;SDS011;2496;52.468;13.342;2023-11-18T10:53:11;9.00;;;6.60;;
4961;SDS011;2496;52.468;13.342;2023-11-18T10:55:40;10.70;;;6.97;;
4961;SDS011;2496;52.468;13.342;2023-11-18T10:58:07;12.80;;;8.53;;
4961;SDS011;2496;52.468;13.342;2023-11-18T11:00:49;10.50;;;6.33;;
4961;SDS011;2496;52.468;13.342;2023-11-18T11:03:18;15.20;;;7.97;;
4961;SDS011;2496;52.468;13.342;2023-11-18T11:05:48;9.40;;;6.03;;
4961;SDS011;2496;52.468;13.342;2023-11-18T11:08:17;18.53;;;6.53;;
4961;SDS011;2496;52.468;13.342;2023-11-18T11:10:45;7.67;;;5.40;;
4961;SDS011;2496;52.468;13.342;2023-11-18T11:13:13;13.13;;;7.07;;
4961;SDS011;2496;52.468;13.342;2023-11-18T11:15:43;22.20;;;11.80;;
4961;SDS011;2496;52.468;13.342;2023-11-18T11:18:12;14.10;;;9.63;;
4961;SDS011;2496;52.468;13.342;2023-11-18T11:20:47;12.57;;;7.30;;
4961;SDS011;2496;52.468;13.342;2023-11-18T11:23:26;9.03;;;5.70;;
4961;SDS011;2496;52.468;13.342;2023-11-18T11:26:10;11.33;;;7.07;;
4961;SDS011;2496;52.468;13.342;2023-11-18T11:28:47;16.77;;;6.83;;
4961;SDS011;2496;52.468;13.342;2023-11-18T11:31:26;10.70;;;6.90;;
4961;SDS011;2496;52.468;13.342;2023-11-18T11:34:01;15.40;;;8.10;;
4961;SDS011;2496;52.468;13.342;2023-11-18T11:36:35;13.60;;;7.40;;
4961;SDS011;2496;52.468;13.342;2023-11-18T11:39:06;12.00;;;7.23;;
4961;SDS011;2496;52.468;13.342;2023-11-18T11:41:40;13.40;;;7.50;;
4961;SDS011;2496;52.468;13.342;2023-11-18T11:44:11;11.13;;;6.97;;
4961;SDS011;2496;52.468;13.342;2023-11-18T11:46:39;13.10;;;7.87;;
4961;SDS011;2496;52.468;13.342;2023-11-18T11:49:09;14.43;;;7.73;;
4961;SDS011;2496;52.468;13.342;2023-11-18T11:51:46;14.00;;;8.27;;
4961;SDS011;2496;52.468;13.342;2023-11-18T11:54:17;16.20;;;7.03;;
4961;SDS011;2496;52.468;13.342;2023-11-18T11:56:47;12.87;;;7.00;;
4961;SDS011;2496;52.468;13.342;2023-11-18T12:02:22;15.07;;;8.17;;
4961;SDS011;2496;52.468;13.342;2023-11-18T12:04:55;29.00;;;9.73;;
4961;SDS011;2496;52.468;13.342;2023-11-18T12:07:24;16.20;;;9.13;;
4961;SDS011;2496;52.468;13.342;2023-11-18T12:09:56;15.47;;;9.47;;
4961;SDS011;2496;52.468;13.342;2023-11-18T12:12:25;18.97;;;9.47;;
4961;SDS011;2496;52.468;13.342;2023-11-18T12:14:53;18.57;;;9.90;;
4961;SDS011;2496;52.468;13.342;2023-11-18T12:17:22;20.00;;;9.80;;
4961;SDS011;2496;52.468;13.342;2023-11-18T12:20:10;15.07;;;8.73;;
4961;SDS011;2496;52.468;13.342;2023-11-18T12:23:19;14.10;;;8.90;;
4961;SDS011;2496;52.468;13.342;2023-11-18T12:25:49;18.77;;;9.70;;
4961;SDS011;2496;52.468;13.342;2023-11-18T12:28:19;14.43;;;8.23;;
4961;SDS011;2496;52.468;13.342;2023-11-18T12:30:52;14.50;;;8.97;;
4961;SDS011;2496;52.468;13.342;2023-11-18T12:33:23;18.60;;;11.90;;
4961;SDS011;2496;52.468;13.342;2023-11-18T12:39:20;16.30;;;8.10;;
4961;SDS011;2496;52.468;13.342;2023-11-18T12:42:09;17.83;;;9.23;;
4961;SDS011;2496;52.468;13.342;2023-11-18T12:44:47;14.33;;;8.03;;
4961;SDS011;2496;52.468;13.342;2023-11-18T12:47:34;14.53;;;8.97;;
4961;SDS011;2496;52.468;13.342;2023-11-18T12:50:07;12.17;;;7.47;;
4961;SDS011;2496;52.468;13.342;2023-11-18T12:52:43;15.03;;;8.50;;
4961;SDS011;2496;52.468;13.342;2023-11-18T12:55:13;12.43;;;8.03;;
4961;SDS011;2496;52.468;13.342;2023-11-18T12:57:45;18.87;;;8.77;;
4961;SDS011;2496;52.468;13.342;2023-11-18T13:00:13;16.20;;;10.30;;
4961;SDS011;2496;52.468;13.342;2023-11-18T13:02:51;18.90;;;10.10;;
4961;SDS011;2496;52.468;13.342;2023-11-18T13:05:19;13.20;;;7.80;;
4961;SDS011;2496;52.468;13.342;2023-11-18T13:07:47;19.23;;;8.50;;
4961;SDS011;2496;52.468;13.342;2023-11-18T13:10:14;17.17;;;8.37;;
4961;SDS011;2496;52.468;13.342;2023-11-18T13:12:41;19.00;;;8.50;;
4961;SDS011;2496;52.468;13.342;2023-11-18T13:15:10;13.93;;;8.13;;
4961;SDS011;2496;52.468;13.342;2023-11-18T13:17:37;13.00;;;8.63;;
4961;SDS011;2496;52.468;13.342;2023-11-18T13:20:11;15.63;;;7.83;;
4961;SDS011;2496;52.468;13.342;2023-11-18T13:22:38;16.57;;;8.30;;
4961;SDS011;2496;52.468;13.342;2023-11-18T13:25:07;12.30;;;7.03;;
4961;SDS011;2496;52.468;13.342;2023-11-18T13:27:34;11.27;;;6.40;;
4961;SDS011;2496;52.468;13.342;2023-11-18T13:30:04;11.80;;;7.50;;
4961;SDS011;2496;52.468;13.342;2023-11-18T13:32:37;14.33;;;9.10;;
4961;SDS011;2496;52.468;13.342;2023-11-18T13:35:07;17.90;;;9.47;;
4961;SDS011;2496;52.468;13.342;2023-11-18T13:37:34;16.00;;;8.60;;
4961;SDS011;2496;52.468;13.342;2023-11-18T13:40:00;16.30;;;8.03;;
4961;SDS011;2496;52.468;13.342;2023-11-18T13:42:34;14.67;;;8.73;;
4961;SDS011;2496;52.468;13.342;2023-11-18T13:45:03;15.13;;;9.03;;
4961;SDS011;2496;52.468;13.342;2023-11-18T13:47:37;12.63;;;8.70;;
4961;SDS011;2496;52.468;13.342;2023-11-18T13:50:06;11.60;;;7.90;;
4961;SDS011;2496;52.468;13.342;2023-11-18T13:52:33;12.23;;;7.80;;
4961;SDS011;2496;52.468;13.342;2023-11-18T13:55:00;15.00;;;7.90;;
4961;SDS011;2496;52.468;13.342;2023-11-18T13:57:30;13.77;;;8.10;;
4961;SDS011;2496;52.468;13.342;2023-11-18T13:59:59;11.03;;;7.13;;
4961;SDS011;2496;52.468;13.342;2023-11-18T14:02:27;14.70;;;9.27;;
4961;SDS011;2496;52.468;13.342;2023-11-18T14:04:54;16.40;;;9.93;;
4961;SDS011;2496;52.468;13.342;2023-11-18T14:07:22;17.07;;;9.00;;
4961;SDS011;2496;52.468;13.342;2023-11-18T14:09:49;11.27;;;7.53;;
4961;SDS011;2496;52.468;13.342;2023-11-18T14:12:21;14.83;;;7.70;;
4961;SDS011;2496;52.468;13.342;2023-11-18T14:14:54;12.17;;;8.10;;
4961;SDS011;2496;52.468;13.342;2023-11-18T14:17:20;16.63;;;9.00;;
4961;SDS011;2496;52.468;13.342;2023-11-18T14:19:47;14.33;;;9.03;;
4961;SDS011;2496;52.468;13.342;2023-11-18T14:22:15;15.63;;;8.27;;
4961;SDS011;2496;52.468;13.342;2023-11-18T14:24:42;14.57;;;9.27;;
4961;SDS011;2496;52.468;13.342;2023-11-18T14:27:09;15.03;;;8.60;;
4961;SDS011;2496;52.468;13.342;2023-11-18T14:29:36;14.20;;;7.67;;
4961;SDS011;2496;52.468;13.342;2023-11-18T14:32:04;13.60;;;8.20;;
4961;SDS011;2496;52.468;13.342;2023-11-18T14:34:32;23.43;;;10.33;;
4961;SDS011;2496;52.468;13.342;2023-11-18T14:36:59;13.87;;;8.53;;
4961;SDS011;2496;52.468;13.342;2023-11-18T14:39:27;13.50;;;8.37;;
4961;SDS011;2496;52.468;13.342;2023-11-18T14:41:54;12.50;;;8.07;;
4961;SDS011;2496;52.468;13.342;2023-11-18T14:44:22;14.40;;;8.00;;
4961;SDS011;2496;52.468;13.342;2023-11-18T14:46:49;14.60;;;9.17;;
4961;SDS011;2496;52.468;13.342;2023-11-18T14:49:18;13.70;;;8.63;;
4961;SDS011;2496;52.468;13.342;2023-11-18T14:51:45;13.83;;;9.23;;
4961;SDS011;2496;52.468;13.342;2023-11-18T14:54:12;16.47;;;9.50;;
4961;SDS011;2496;52.468;13.342;2023-11-18T14:56:39;14.43;;;8.90;;
4961;SDS011;2496;52.468;13.342;2023-11-18T14:59:06;17.97;;;9.13;;
4961;SDS011;2496;52.468;13.342;2023-11-18T15:01:33;16.00;;;8.60;;
4961;SDS011;2496;52.468;13.342;2023-11-18T15:04:00;15.67;;;9.00;;
4961;SDS011;2496;52.468;13.342;2023-11-18T15:06:32;12.23;;;8.70;;
4961;SDS011;2496;52.468;13.342;2023-11-18T15:08:59;18.40;;;9.27;;